createdAt,value
2016-02-24T00:00:14.017Z,1
2016-02-24T00:03:25.791Z,0
2016-02-24T00:06:38.471Z,0
2016-02-24T00:09:57.263Z,0
2016-02-24T00:12:59.192Z,0
2016-02-24T00:16:10.450Z,0
2016-02-24T00:19:20.051Z,0
2016-02-24T00:22:32.842Z,0
2016-02-24T00:25:51.912Z,0
2016-02-24T00:28:55.939Z,0
2016-02-24T00:32:06.322Z,0
2016-02-24T00:35:19.094Z,0
2016-02-24T00:38:31.749Z,0
2016-02-24T00:41:50.726Z,0
2016-02-24T00:44:58.502Z,0
2016-02-24T00:48:00.276Z,0
2016-02-24T00:51:11.378Z,0
2016-02-24T00:54:24.276Z,0
2016-02-24T00:57:37.128Z,0
2016-02-24T01:00:56.027Z,0
2016-02-24T01:03:57.756Z,0
2016-02-24T01:07:08.457Z,0
2016-02-24T01:10:19.543Z,0
2016-02-24T01:13:31.363Z,0
2016-02-24T01:16:50.450Z,0
2016-02-24T01:19:58.351Z,0
2016-02-24T01:23:00.062Z,0
2016-02-24T01:26:13.008Z,0
2016-02-24T01:29:24.110Z,0
2016-02-24T01:32:36.993Z,0
2016-02-24T01:35:55.844Z,0
2016-02-24T01:38:57.590Z,0
2016-02-24T01:42:10.238Z,0
2016-02-24T01:45:23.121Z,0
2016-02-24T01:48:33.270Z,0
2016-02-24T01:51:52.044Z,0
2016-02-24T01:54:53.834Z,0
2016-02-24T01:58:06.250Z,0
2016-02-24T02:01:17.211Z,0
2016-02-24T02:04:30.063Z,0
2016-02-24T02:07:40.196Z,0
2016-02-24T02:10:56.454Z,0
2016-02-24T02:13:58.231Z,0
2016-02-24T02:17:10.926Z,0
2016-02-24T02:20:21.559Z,0
2016-02-24T02:23:31.801Z,0
2016-02-24T02:26:41.951Z,0
2016-02-24T02:29:54.709Z,0
2016-02-24T02:33:07.111Z,0
2016-02-24T02:36:17.586Z,0
2016-02-24T02:39:30.063Z,0
2016-02-24T02:42:39.806Z,0
2016-02-24T02:45:58.676Z,0
2016-02-24T02:49:00.434Z,0
2016-02-24T02:52:10.052Z,0
2016-02-24T02:55:22.795Z,0
2016-02-24T02:58:32.600Z,0
2016-02-24T03:01:51.341Z,0
2016-02-24T03:04:58.977Z,0
2016-02-24T03:08:01.939Z,0
2016-02-24T03:11:10.650Z,0
2016-02-24T03:14:23.674Z,0
2016-02-24T03:17:36.464Z,0
2016-02-24T03:20:54.409Z,0
2016-02-24T03:23:56.121Z,0
2016-02-24T03:27:09.975Z,0
2016-02-24T03:30:19.561Z,0
2016-02-24T03:33:29.928Z,0
2016-02-24T03:36:42.405Z,0
2016-02-24T03:39:58.382Z,0
2016-02-24T03:43:00.088Z,0
2016-02-24T03:46:12.867Z,0
2016-02-24T03:49:23.127Z,0
2016-02-24T03:52:35.785Z,0
2016-02-24T03:55:54.366Z,0
2016-02-24T03:58:55.887Z,0
2016-02-24T04:02:06.959Z,0
2016-02-24T04:05:18.691Z,0
2016-02-24T04:08:31.449Z,0
2016-02-24T04:11:41.098Z,0
2016-02-24T04:14:53.637Z,0
2016-02-24T04:18:04.632Z,0
2016-02-24T04:21:17.609Z,0
2016-02-24T04:24:30.227Z,0
2016-02-24T04:27:42.891Z,0
2016-02-24T04:30:55.929Z,0
2016-02-24T04:34:08.707Z,0
2016-02-24T04:37:18.902Z,0
2016-02-24T04:40:29.050Z,0
2016-02-24T04:43:41.731Z,0
2016-02-24T04:46:53.816Z,0
2016-02-24T04:50:06.140Z,0
2016-02-24T04:53:17.241Z,0
2016-02-24T04:56:26.894Z,0
2016-02-24T04:59:39.683Z,0
2016-02-24T05:02:56.036Z,0
2016-02-24T05:05:57.950Z,0
2016-02-24T05:09:10.195Z,0
2016-02-24T05:12:21.282Z,0
2016-02-24T05:15:34.071Z,0
2016-02-24T05:18:52.313Z,0
2016-02-24T05:21:54.023Z,0
2016-02-24T05:25:06.754Z,0
2016-02-24T05:28:19.590Z,1
2016-02-24T05:31:32.191Z,1
2016-02-24T05:34:50.965Z,1
2016-02-24T05:37:59.613Z,1
2016-02-24T05:41:00.325Z,3
2016-02-24T05:44:13.210Z,5
2016-02-24T05:47:23.375Z,6
2016-02-24T05:50:33.102Z,9
2016-02-24T05:53:51.798Z,15
2016-02-24T05:56:59.493Z,17
2016-02-24T06:00:01.191Z,41
2016-02-24T06:03:13.934Z,132
2016-02-24T06:06:25.974Z,147
2016-02-24T06:09:37.889Z,200
2016-02-24T06:12:55.756Z,214
2016-02-24T06:15:57.327Z,173
2016-02-24T06:19:06.603Z,227
2016-02-24T06:22:16.346Z,315
2016-02-24T06:25:29.557Z,358
2016-02-24T06:28:39.892Z,364
2016-02-24T06:31:58.307Z,409
2016-02-24T06:34:59.971Z,850
2016-02-24T06:38:12.373Z,1110
2016-02-24T06:41:22.943Z,1287
2016-02-24T06:44:34.830Z,1232
2016-02-24T06:47:53.624Z,884
2016-02-24T06:50:55.428Z,875
2016-02-24T06:54:06.408Z,1749
2016-02-24T06:57:19.150Z,1502
2016-02-24T07:00:29.502Z,749
2016-02-24T07:03:42.292Z,859
2016-02-24T07:06:54.971Z,688
2016-02-24T07:10:06.080Z,797
2016-02-24T07:13:19.292Z,637
2016-02-24T07:16:31.222Z,739
2016-02-24T07:19:49.964Z,967
2016-02-24T07:22:57.785Z,1000
2016-02-24T07:25:59.496Z,1346
2016-02-24T07:29:12.070Z,2298
2016-02-24T07:32:24.828Z,6166
2016-02-24T07:35:34.961Z,4717
2016-02-24T07:38:54.281Z,6086
2016-02-24T07:41:57.055Z,5187
2016-02-24T07:45:10.925Z,7003
2016-02-24T07:48:24.308Z,6806
2016-02-24T07:51:37.597Z,8070
2016-02-24T07:54:57.043Z,601
2016-02-24T07:58:00.004Z,8062
2016-02-24T08:01:13.937Z,6456
2016-02-24T08:04:23.945Z,9453
2016-02-24T08:07:37.093Z,8946
2016-02-24T08:10:54.164Z,8350
2016-02-24T08:13:56.563Z,7675
2016-02-24T08:17:09.885Z,11122
2016-02-24T08:20:20.566Z,8763
2016-02-24T08:23:31.543Z,8762
2016-02-24T08:26:42.863Z,3642
2016-02-24T08:29:54.060Z,2975
2016-02-24T08:33:06.617Z,2286
2016-02-24T08:36:16.625Z,2268
2016-02-24T08:39:29.429Z,2391
2016-02-24T08:42:40.328Z,2235
2016-02-24T08:45:59.320Z,2253
2016-02-24T08:49:01.219Z,2258
2016-02-24T08:52:11.527Z,4080
2016-02-24T08:55:24.222Z,9362
2016-02-24T08:58:37.590Z,9371
2016-02-24T09:01:54.473Z,7502
2016-02-24T09:04:56.746Z,7091
2016-02-24T09:08:09.757Z,9683
2016-02-24T09:11:21.390Z,7102
2016-02-24T09:14:32.727Z,11003
2016-02-24T09:17:51.344Z,1020
2016-02-24T09:20:54.118Z,9579
2016-02-24T09:24:07.957Z,8518
2016-02-24T09:27:20.308Z,13694
2016-02-24T09:30:31.535Z,11165
2016-02-24T09:33:43.199Z,384
2016-02-24T09:36:56.895Z,7063
2016-02-24T09:40:10.687Z,384
2016-02-24T09:43:22.336Z,384
2016-02-24T09:46:34.688Z,384
2016-02-24T09:49:54.524Z,384
2016-02-24T09:52:58.032Z,11624
2016-02-24T09:56:09.652Z,491
2016-02-24T09:59:23.691Z,6657
2016-02-24T10:02:37.184Z,9544
2016-02-24T10:05:56.473Z,12900
2016-02-24T10:08:59.137Z,11015
2016-02-24T10:12:12.445Z,10677
2016-02-24T10:15:25.781Z,6941
2016-02-24T10:18:38.617Z,7018
2016-02-24T10:21:57.688Z,9881
2016-02-24T10:25:00.102Z,11601
2016-02-24T10:28:13.535Z,7413
2016-02-24T10:31:26.652Z,7571
2016-02-24T10:34:39.864Z,9377
2016-02-24T10:37:55.871Z,5611
2016-02-24T10:40:58.114Z,5324
2016-02-24T10:44:08.610Z,10627
2016-02-24T10:47:21.727Z,7685
2016-02-24T10:50:34.891Z,6057
2016-02-24T10:53:52.353Z,4284
2016-02-24T10:56:54.283Z,1922
2016-02-24T11:00:06.746Z,1396
2016-02-24T11:03:16.832Z,1103
2016-02-24T11:06:29.699Z,1614
2016-02-24T11:09:40.551Z,1827
2016-02-24T11:12:59.451Z,1492
2016-02-24T11:16:01.599Z,1658
2016-02-24T11:19:14.251Z,1629
2016-02-24T11:22:26.509Z,1843
2016-02-24T11:25:38.704Z,2940
2016-02-24T11:28:56.463Z,5133
2016-02-24T11:31:58.424Z,3651
2016-02-24T11:35:11.434Z,2610
2016-02-24T11:38:22.426Z,3131
2016-02-24T11:41:36.012Z,4797
2016-02-24T11:44:53.411Z,4431
2016-02-24T11:47:55.419Z,3739
2016-02-24T11:51:05.505Z,3031
2016-02-24T11:54:15.157Z,2551
2016-02-24T11:57:26.103Z,2422
2016-02-24T12:00:38.954Z,2129
2016-02-24T12:03:54.541Z,1471
2016-02-24T12:06:56.519Z,1616
2016-02-24T12:10:09.358Z,2794
2016-02-24T12:13:19.913Z,4874
2016-02-24T12:16:30.436Z,4549
2016-02-24T12:19:41.602Z,4033
2016-02-24T12:22:54.281Z,4186
2016-02-24T12:26:06.948Z,2572
2016-02-24T12:29:18.471Z,1513
2016-02-24T12:32:31.261Z,1443
2016-02-24T12:35:42.878Z,2609
2016-02-24T12:38:55.714Z,4852
2016-02-24T12:42:07.679Z,3885
2016-02-24T12:45:19.547Z,4457
2016-02-24T12:48:32.438Z,2297
2016-02-24T12:51:51.228Z,3372
2016-02-24T12:54:59.209Z,3814
2016-02-24T12:58:02.193Z,3900
2016-02-24T13:01:14.481Z,3047
2016-02-24T13:04:25.051Z,3545
2016-02-24T13:07:35.761Z,4714
2016-02-24T13:10:54.518Z,4219
2016-02-24T13:13:56.760Z,4592
2016-02-24T13:17:09.584Z,3343
2016-02-24T13:20:22.810Z,3120
2016-02-24T13:23:35.787Z,2759
2016-02-24T13:26:51.592Z,3156
2016-02-24T13:29:59.756Z,4005
2016-02-24T13:33:01.952Z,3520
2016-02-24T13:36:12.916Z,2739
2016-02-24T13:39:23.611Z,3733
2016-02-24T13:42:36.541Z,4874
2016-02-24T13:45:55.738Z,4226
2016-02-24T13:48:57.964Z,2314
2016-02-24T13:52:08.160Z,3269
2016-02-24T13:55:21.218Z,1883
2016-02-24T13:58:33.912Z,5281
2016-02-24T14:01:53.156Z,2501
2016-02-24T14:04:55.264Z,1732
2016-02-24T14:08:08.396Z,889
2016-02-24T14:11:19.532Z,758
2016-02-24T14:14:32.448Z,3102
2016-02-24T14:17:51.392Z,3018
2016-02-24T14:20:59.510Z,1723
2016-02-24T14:24:01.533Z,2502
2016-02-24T14:27:14.247Z,3060
2016-02-24T14:30:27.146Z,2509
2016-02-24T14:33:38.185Z,2233
2016-02-24T14:36:57.069Z,2182
2016-02-24T14:39:59.046Z,1932
2016-02-24T14:43:09.884Z,1896
2016-02-24T14:46:22.580Z,1803
2016-02-24T14:49:32.916Z,1268
2016-02-24T14:52:51.752Z,1460
2016-02-24T14:55:59.775Z,1551
2016-02-24T14:59:01.488Z,1980
2016-02-24T15:02:14.310Z,1839
2016-02-24T15:05:25.107Z,1772
2016-02-24T15:08:36.114Z,1731
2016-02-24T15:11:54.903Z,1607
2016-02-24T15:14:56.677Z,1543
2016-02-24T15:18:09.576Z,1490
2016-02-24T15:21:22.212Z,1573
2016-02-24T15:24:35.157Z,1468
2016-02-24T15:27:51.119Z,1740
2016-02-24T15:30:59.080Z,1446
2016-02-24T15:34:00.978Z,1419
2016-02-24T15:37:14.630Z,1324
2016-02-24T15:40:26.497Z,1228
2016-02-24T15:43:38.021Z,1184
2016-02-24T15:46:56.858Z,1132
2016-02-24T15:49:58.725Z,1108
2016-02-24T15:53:09.576Z,1134
2016-02-24T15:56:22.213Z,903
2016-02-24T15:59:35.345Z,870
2016-02-24T16:02:54.353Z,794
2016-02-24T16:05:56.189Z,764
2016-02-24T16:09:09.729Z,691
2016-02-24T16:12:21.536Z,605
2016-02-24T16:15:34.248Z,543
2016-02-24T16:18:52.740Z,469
2016-02-24T16:21:54.545Z,399
2016-02-24T16:25:07.318Z,329
2016-02-24T16:28:19.798Z,265
2016-02-24T16:31:30.432Z,207
2016-02-24T16:34:40.892Z,156
2016-02-24T16:37:59.964Z,111
2016-02-24T16:41:01.518Z,77
2016-02-24T16:44:12.842Z,50
2016-02-24T16:47:25.380Z,30
2016-02-24T16:50:37.780Z,17
2016-02-24T16:53:56.319Z,9
2016-02-24T16:56:58.093Z,6
2016-02-24T17:00:08.757Z,3
2016-02-24T17:03:19.986Z,2
2016-02-24T17:06:32.697Z,1
2016-02-24T17:09:51.111Z,1
2016-02-24T17:12:58.744Z,1
2016-02-24T17:16:00.316Z,0
2016-02-24T17:19:09.605Z,1
2016-02-24T17:22:19.787Z,0
2016-02-24T17:25:30.623Z,0
2016-02-24T17:28:43.085Z,0
2016-02-24T17:31:55.530Z,0
2016-02-24T17:35:07.788Z,0
2016-02-24T17:38:19.158Z,0
2016-02-24T17:41:29.120Z,0
2016-02-24T17:44:41.581Z,0
2016-02-24T17:47:59.855Z,0
2016-02-24T17:51:01.331Z,0
2016-02-24T17:54:13.732Z,0
2016-02-24T17:57:26.163Z,0
2016-02-24T18:00:38.718Z,0
2016-02-24T18:03:53.773Z,0
2016-02-24T18:06:55.265Z,0
2016-02-24T18:10:07.507Z,0
2016-02-24T18:13:18.378Z,0
2016-02-24T18:16:30.636Z,0
2016-02-24T18:19:42.941Z,0
2016-02-24T18:22:55.246Z,0
2016-02-24T18:26:07.738Z,0
2016-02-24T18:29:20.421Z,0
2016-02-24T18:32:32.476Z,0
2016-02-24T18:35:50.781Z,0
2016-02-24T18:38:58.273Z,0
2016-02-24T18:41:59.562Z,0
2016-02-24T18:45:12.148Z,0
2016-02-24T18:48:21.830Z,0
2016-02-24T18:51:31.292Z,0
2016-02-24T18:54:43.722Z,0
2016-02-24T18:57:56.043Z,0
2016-02-24T19:01:06.957Z,0
2016-02-24T19:04:19.562Z,0
2016-02-24T19:07:31.945Z,0
2016-02-24T19:10:44.437Z,0
2016-02-24T19:13:56.820Z,0
2016-02-24T19:17:06.953Z,0
2016-02-24T19:20:19.433Z,0
2016-02-24T19:23:28.706Z,0
2016-02-24T19:26:38.214Z,0
2016-02-24T19:29:56.707Z,0
2016-02-24T19:32:58.027Z,0
2016-02-24T19:36:10.348Z,0
2016-02-24T19:39:22.874Z,1
2016-02-24T19:42:34.617Z,1
2016-02-24T19:45:51.562Z,1
2016-02-24T19:48:59.227Z,1
2016-02-24T19:52:00.594Z,1
2016-02-24T19:55:13.086Z,1
2016-02-24T19:58:25.363Z,1
2016-02-24T20:01:35.527Z,1
2016-02-24T20:04:53.895Z,1
2016-02-24T20:07:54.872Z,1
2016-02-24T20:11:06.818Z,1
2016-02-24T20:14:19.422Z,1
2016-02-24T20:17:26.242Z,1
2016-02-24T20:20:39.391Z,1
2016-02-24T20:23:57.946Z,1
2016-02-24T20:26:59.485Z,1
2016-02-24T20:30:11.103Z,1
2016-02-24T20:33:21.223Z,1
2016-02-24T20:36:32.341Z,1
2016-02-24T20:39:42.848Z,1
2016-02-24T20:42:58.247Z,1
2016-02-24T20:45:59.770Z,1
2016-02-24T20:49:08.779Z,1
2016-02-24T20:52:19.070Z,1
2016-02-24T20:55:31.501Z,1
2016-02-24T20:58:39.962Z,1
2016-02-24T21:01:58.407Z,1
2016-02-24T21:05:00.400Z,1
2016-02-24T21:08:09.018Z,1
2016-02-24T21:11:21.746Z,1
2016-02-24T21:14:33.598Z,1
2016-02-24T21:17:52.169Z,1
2016-02-24T21:20:59.958Z,1
2016-02-24T21:24:01.561Z,1
2016-02-24T21:27:14.334Z,1
2016-02-24T21:30:26.813Z,1
2016-02-24T21:33:36.665Z,1
2016-02-24T21:36:53.704Z,1
2016-02-24T21:39:55.275Z,1
2016-02-24T21:43:07.752Z,1
2016-02-24T21:46:20.481Z,1
2016-02-24T21:49:29.942Z,1
2016-02-24T21:52:39.433Z,1
2016-02-24T21:55:55.887Z,1
2016-02-24T21:58:57.383Z,1
2016-02-24T22:02:09.611Z,1
2016-02-24T22:05:22.065Z,1
2016-02-24T22:08:34.476Z,1
2016-02-24T22:11:52.999Z,1
2016-02-24T22:15:00.412Z,1
2016-02-24T22:18:02.091Z,1
2016-02-24T22:21:11.849Z,1
2016-02-24T22:24:24.204Z,1
2016-02-24T22:27:32.602Z,1
2016-02-24T22:30:51.298Z,1
2016-02-24T22:33:58.915Z,1
2016-02-24T22:37:00.423Z,1
2016-02-24T22:40:12.931Z,1
2016-02-24T22:43:23.036Z,1
2016-02-24T22:46:35.607Z,1
2016-02-24T22:49:53.380Z,1
2016-02-24T22:52:54.966Z,1
2016-02-24T22:56:04.209Z,1
2016-02-24T22:59:15.061Z,1
2016-02-24T23:02:27.540Z,1
2016-02-24T23:05:37.658Z,1
2016-02-24T23:08:56.181Z,1
2016-02-24T23:11:57.658Z,1
2016-02-24T23:15:06.494Z,1
2016-02-24T23:18:19.286Z,1
2016-02-24T23:21:33.529Z,1
2016-02-24T23:24:41.537Z,1
2016-02-24T23:27:59.607Z,1
2016-02-24T23:31:01.131Z,1
2016-02-24T23:34:13.358Z,1
2016-02-24T23:37:23.322Z,1
2016-02-24T23:40:36.002Z,1
2016-02-24T23:43:53.291Z,1
2016-02-24T23:47:00.846Z,1
2016-02-24T23:50:02.197Z,1
2016-02-24T23:53:12.972Z,1
2016-02-24T23:56:22.998Z,1
2016-02-24T23:59:35.646Z,1
